Avoca, Minnesota
Current Conditions -  °F | °C
As of 6:14 PM on Wednesday 22 Oct 2014 (Local Time) from KDVP Reporting Station
Light Rain Light Rain  
Wind Chill: 60°   Ceiling: 5000
Heat Index: 60°   Visibility: 7mi
Dew Point: 58°   Wind: 10mph
Humidity: 92%   Direction: 250°WSW
Pressure: 29.99"   Gusts: NA
Location:  43.95°N, 95.65°W
Report Text: KDVP 222314Z AUTO 25009KT 7SM -RA SCT025 SCT035 OVC050 16/14 A2999 RMK AO2 P0002 T01550142
Loading
Personal Weather Stations






























Interactive Weather Map
Tropical Storm Tracking
New forecast layout! Learn more

10-Day Weather Forecast

Advertisements
Track Severe Weather on mobile